createdAt,value
2018-09-18T00:00:36.269Z,17.4
2018-09-18T00:01:16.720Z,17.32
2018-09-18T00:01:57.389Z,17.32
2018-09-18T00:02:37.744Z,17.4
2018-09-18T00:03:18.151Z,17.46
2018-09-18T00:03:58.584Z,17.39
2018-09-18T00:04:39.057Z,17.42
2018-09-18T00:05:19.388Z,17.36
2018-09-18T00:05:59.797Z,17.42
2018-09-18T00:06:40.213Z,17.36
2018-09-18T00:07:20.710Z,17.42
2018-09-18T00:08:01.105Z,17.43
2018-09-18T00:08:41.461Z,17.45
2018-09-18T00:09:21.868Z,17.39
2018-09-18T00:10:02.305Z,17.43
2018-09-18T00:10:42.725Z,17.38
2018-09-18T00:11:23.115Z,17.43
2018-09-18T00:12:03.502Z,17.43
2018-09-18T00:12:43.950Z,17.4
2018-09-18T00:13:24.327Z,17.4
2018-09-18T00:14:04.711Z,17.4
2018-09-18T00:14:45.139Z,17.4
2018-09-18T00:15:25.550Z,17.39
2018-09-18T00:16:06.008Z,17.38
2018-09-18T00:16:46.474Z,17.39
2018-09-18T00:17:26.847Z,17.39
2018-09-18T00:18:07.338Z,17.39
2018-09-18T00:18:47.814Z,17.35
2018-09-18T00:19:28.141Z,17.36
2018-09-18T00:20:08.567Z,17.36
2018-09-18T00:20:48.985Z,17.35
2018-09-18T00:21:29.398Z,17.33
2018-09-18T00:22:09.763Z,17.38
2018-09-18T00:22:50.231Z,17.3
2018-09-18T00:23:30.550Z,17.39
2018-09-18T00:24:10.976Z,17.25
2018-09-18T00:24:51.420Z,17.22
2018-09-18T00:25:31.834Z,17.33
2018-09-18T00:26:12.182Z,17.35
2018-09-18T00:26:52.625Z,17.35
2018-09-18T00:27:33.123Z,17.38
2018-09-18T00:28:13.449Z,17.38
2018-09-18T00:28:53.815Z,17.42
2018-09-18T00:29:34.281Z,17.36
2018-09-18T00:30:14.702Z,17.38
2018-09-18T00:30:55.116Z,17.38
2018-09-18T00:31:35.473Z,17.3
2018-09-18T00:32:15.904Z,17.33
2018-09-18T00:32:56.464Z,17.27
2018-09-18T00:33:36.857Z,17.22
2018-09-18T00:34:17.306Z,17.17
2018-09-18T00:34:57.778Z,17.27
2018-09-18T00:35:38.132Z,17.28
2018-09-18T00:36:18.646Z,17.32
2018-09-18T00:36:59.027Z,17.27
2018-09-18T00:37:39.419Z,17.15
2018-09-18T00:38:19.816Z,17.18
2018-09-18T00:39:00.207Z,17.14
2018-09-18T00:39:40.723Z,17.14
2018-09-18T00:40:21.160Z,17.17
2018-09-18T00:41:01.481Z,17.14
2018-09-18T00:41:41.923Z,17.14
2018-09-18T00:42:22.345Z,17.07
2018-09-18T00:43:02.763Z,16.99
2018-09-18T00:43:43.128Z,17
2018-09-18T00:44:23.587Z,17.1
2018-09-18T00:45:03.937Z,16.98
2018-09-18T00:45:44.377Z,17.05
2018-09-18T00:46:24.764Z,17
2018-09-18T00:47:05.204Z,17.05
2018-09-18T00:47:45.570Z,17
2018-09-18T00:48:25.960Z,16.98
2018-09-18T00:49:06.399Z,17
2018-09-18T00:49:46.905Z,17.03
2018-09-18T00:50:27.251Z,16.98
2018-09-18T00:51:07.734Z,17.03
2018-09-18T00:51:48.028Z,17.05
2018-09-18T00:52:28.416Z,16.99
2018-09-18T00:53:08.825Z,16.98
2018-09-18T00:53:49.267Z,16.96
2018-09-18T00:54:29.673Z,16.96
2018-09-18T00:55:10.139Z,16.96
2018-09-18T00:55:50.524Z,16.98
2018-09-18T00:56:30.954Z,16.98
2018-09-18T00:57:11.316Z,17.05
2018-09-18T00:57:51.744Z,16.96
2018-09-18T00:58:32.149Z,16.98
2018-09-18T00:59:12.626Z,16.98
2018-09-18T00:59:52.973Z,16.99
2018-09-18T01:00:33.521Z,17.09
2018-09-18T01:01:13.836Z,17.09
2018-09-18T01:01:54.246Z,17.07
2018-09-18T01:02:34.704Z,17.12
2018-09-18T01:03:15.041Z,17.07
2018-09-18T01:03:55.603Z,17.14
2018-09-18T01:04:35.935Z,17.05
2018-09-18T01:05:16.378Z,17.06
2018-09-18T01:05:56.758Z,17.1
2018-09-18T01:06:37.133Z,17
2018-09-18T01:07:17.536Z,16.95
2018-09-18T01:07:58.064Z,17.03
2018-09-18T01:08:38.435Z,16.95
2018-09-18T01:09:18.909Z,16.92
2018-09-18T01:09:59.349Z,17
2018-09-18T01:10:39.662Z,16.91
2018-09-18T01:11:20.209Z,16.92
2018-09-18T01:12:00.503Z,16.84
2018-09-18T01:12:40.870Z,16.82
2018-09-18T01:13:22.020Z,16.82
2018-09-18T01:14:02.303Z,16.78
2018-09-18T01:14:42.684Z,16.81
2018-09-18T01:15:23.099Z,16.75
2018-09-18T01:16:03.555Z,16.8
2018-09-18T01:16:43.998Z,16.84
2018-09-18T01:17:24.473Z,16.82
2018-09-18T01:18:04.823Z,16.85
2018-09-18T01:18:45.321Z,16.82
2018-09-18T01:19:25.712Z,16.8
2018-09-18T01:20:06.145Z,16.8
2018-09-18T01:20:46.534Z,16.8
2018-09-18T01:21:26.994Z,16.73
2018-09-18T01:22:07.446Z,16.7
2018-09-18T01:22:48.151Z,16.65
2018-09-18T01:23:28.448Z,16.62
2018-09-18T01:24:09.146Z,16.54
2018-09-18T01:24:49.657Z,16.51
2018-09-18T01:25:29.956Z,16.54
2018-09-18T01:26:10.425Z,16.5
2018-09-18T01:26:50.922Z,16.52
2018-09-18T01:27:31.402Z,16.57
2018-09-18T01:28:11.818Z,16.57
2018-09-18T01:28:52.455Z,16.55
2018-09-18T01:29:32.700Z,16.55
2018-09-18T01:30:13.135Z,16.5
2018-09-18T01:30:53.581Z,16.52
2018-09-18T01:31:33.968Z,16.51
2018-09-18T01:32:14.343Z,16.63
2018-09-18T01:32:54.705Z,16.63
2018-09-18T01:33:35.163Z,16.62
2018-09-18T01:34:16.134Z,16.63
2018-09-18T01:34:55.907Z,16.63
2018-09-18T01:35:36.297Z,16.6
2018-09-18T01:36:16.707Z,16.7
2018-09-18T01:36:57.152Z,16.69
2018-09-18T01:37:37.553Z,16.81
2018-09-18T01:38:18.044Z,16.85
2018-09-18T01:38:58.441Z,16.8
2018-09-18T01:39:38.850Z,16.77
2018-09-18T01:40:19.240Z,16.78
2018-09-18T01:40:59.671Z,16.8
2018-09-18T01:41:40.146Z,16.81
2018-09-18T01:42:20.571Z,16.85
2018-09-18T01:43:00.960Z,16.78
2018-09-18T01:43:41.375Z,16.84
2018-09-18T01:44:21.800Z,16.87
2018-09-18T01:45:03.044Z,16.88
2018-09-18T01:45:43.426Z,16.91
2018-09-18T01:48:48.560Z,16.96
2018-09-18T01:49:30.803Z,16.95
2018-09-18T01:50:11.205Z,16.9
2018-09-18T01:50:51.647Z,16.95
2018-09-18T01:51:32.504Z,16.96
2018-09-18T01:52:12.976Z,16.98
2018-09-18T01:52:53.978Z,16.9
2018-09-18T01:53:34.408Z,16.88
2018-09-18T01:54:14.877Z,16.9
2018-09-18T01:54:55.301Z,16.95
2018-09-18T01:55:35.752Z,16.96
2018-09-18T01:56:16.344Z,16.9
2018-09-18T01:56:56.795Z,16.88
2018-09-18T01:57:37.327Z,16.92
2018-09-18T01:58:18.061Z,16.9
2018-09-18T01:58:58.441Z,16.9
2018-09-18T01:59:38.863Z,16.9
2018-09-18T02:00:19.452Z,16.95
2018-09-18T02:00:59.962Z,16.96
2018-09-18T02:01:40.415Z,16.88
2018-09-18T02:02:21.146Z,17.03
2018-09-18T02:03:01.567Z,16.95
2018-09-18T02:03:41.960Z,17.03
2018-09-18T02:04:22.373Z,16.99
2018-09-18T02:05:03.451Z,17.03
2018-09-18T02:05:43.893Z,17.03
2018-09-18T02:06:25.736Z,17.03
2018-09-18T02:07:06.160Z,17
2018-09-18T02:07:46.572Z,16.99
2018-09-18T02:08:27.006Z,16.98
2018-09-18T02:09:07.475Z,16.92
2018-09-18T02:09:48.015Z,16.98
2018-09-18T02:10:28.360Z,16.96
2018-09-18T02:11:08.819Z,17
2018-09-18T02:11:49.138Z,16.96
2018-09-18T02:15:36.647Z,17.1
2018-09-18T02:16:17.805Z,17.12
2018-09-18T02:16:58.386Z,17.14
2018-09-18T02:17:38.739Z,17.14
2018-09-18T02:18:19.575Z,17.1
2018-09-18T02:19:00.040Z,17.06
2018-09-18T02:19:41.042Z,17.06
2018-09-18T02:20:21.271Z,17
2018-09-18T02:21:02.113Z,17.05
2018-09-18T02:21:42.471Z,16.95
2018-09-18T02:22:23.184Z,16.96
2018-09-18T02:23:03.983Z,16.98
2018-09-18T02:23:44.410Z,16.99
2018-09-18T02:24:24.823Z,16.96
2018-09-18T02:25:05.180Z,16.96
2018-09-18T02:25:45.508Z,16.92
2018-09-18T02:26:26.088Z,17
2018-09-18T02:27:07.102Z,16.92
2018-09-18T02:27:47.720Z,17.02
2018-09-18T02:28:28.228Z,16.99
2018-09-18T02:29:08.616Z,16.96
2018-09-18T02:29:49.807Z,17.05
2018-09-18T02:30:30.091Z,17
2018-09-18T02:31:10.686Z,17
2018-09-18T02:31:51.061Z,16.98
2018-09-18T02:32:31.718Z,17.03
2018-09-18T02:33:12.412Z,16.99
2018-09-18T02:33:53.042Z,16.96
2018-09-18T02:34:33.467Z,16.98
2018-09-18T02:35:13.933Z,16.98
2018-09-18T02:35:54.584Z,16.96
2018-09-18T02:36:35.031Z,16.95
2018-09-18T02:37:15.475Z,16.96
2018-09-18T02:37:55.871Z,17
2018-09-18T02:38:36.280Z,16.95
2018-09-18T02:39:17.309Z,16.95
2018-09-18T02:39:57.703Z,16.9
2018-09-18T02:40:39.584Z,16.92
2018-09-18T02:41:18.467Z,16.92
2018-09-18T02:41:58.863Z,16.99
2018-09-18T02:42:39.270Z,16.99
2018-09-18T02:43:19.724Z,16.99
2018-09-18T02:44:00.267Z,16.98
2018-09-18T02:44:42.441Z,16.92
2018-09-18T02:45:22.967Z,17
2018-09-18T02:46:06.233Z,17.03
2018-09-18T02:46:48.428Z,16.98
2018-09-18T02:47:28.957Z,17.05
2018-09-18T02:48:11.584Z,16.96
2018-09-18T02:48:50.445Z,17.09
2018-09-18T02:49:31.398Z,17.12
2018-09-18T02:50:11.796Z,17.12
2018-09-18T02:50:52.354Z,17.07
2018-09-18T02:51:33.406Z,17.06
2018-09-18T02:52:14.127Z,17.1
2018-09-18T02:52:54.418Z,17.15
2018-09-18T02:53:35.320Z,17.12
2018-09-18T02:54:16.744Z,17.14
2018-09-18T02:54:57.359Z,17.18
2018-09-18T02:55:37.669Z,17.15
2018-09-18T02:56:18.208Z,17.15
2018-09-18T02:56:58.496Z,17.15
2018-09-18T02:57:39.309Z,17.12
2018-09-18T02:58:19.835Z,17.12
2018-09-18T02:59:01.350Z,17.18
2018-09-18T02:59:42.252Z,17.15
2018-09-18T03:00:25.910Z,17.09
2018-09-18T03:01:06.647Z,17.15
2018-09-18T03:01:48.912Z,17.09
2018-09-18T03:02:31.556Z,17.18
2018-09-18T03:03:12.759Z,17.12
2018-09-18T03:03:54.194Z,17.15
2018-09-18T03:04:34.724Z,17.1
2018-09-18T03:11:50.553Z,17.21
2018-09-18T03:12:31.537Z,17.27
2018-09-18T03:13:11.965Z,17.18
2018-09-18T03:13:54.170Z,17.2
2018-09-18T03:14:35.058Z,17.18
2018-09-18T03:15:16.196Z,17.21
2018-09-18T03:15:56.622Z,17.14
2018-09-18T03:16:37.237Z,17.2
2018-09-18T03:17:18.564Z,17.12
2018-09-18T03:17:59.184Z,17.14
2018-09-18T03:18:41.092Z,17.17
2018-09-18T03:25:19.944Z,17.1
2018-09-18T03:25:59.341Z,17.12
2018-09-18T03:26:39.901Z,17.17
2018-09-18T03:27:21.564Z,17.2
2018-09-18T03:28:05.900Z,17.15
2018-09-18T03:28:45.389Z,17.14
2018-09-18T03:29:25.962Z,17.12
2018-09-18T03:30:06.422Z,17.1
2018-09-18T03:30:46.831Z,17.15
2018-09-18T03:31:28.308Z,17.14
2018-09-18T03:32:09.098Z,17.1
2018-09-18T03:32:50.610Z,17.17
2018-09-18T03:33:31.186Z,17.06
2018-09-18T03:34:11.369Z,17.18
2018-09-18T03:34:54.784Z,17.2
2018-09-18T03:35:35.169Z,17.21
2018-09-18T03:36:15.592Z,17.14
2018-09-18T03:36:57.055Z,17.12
2018-09-18T03:37:37.312Z,17.12
2018-09-18T03:38:17.987Z,17.17
2018-09-18T03:38:58.569Z,17.12
2018-09-18T03:39:38.945Z,17.24
2018-09-18T03:40:20.040Z,17.22
2018-09-18T03:41:01.632Z,17.12
2018-09-18T03:41:42.062Z,17.15
2018-09-18T03:42:23.372Z,17.25
2018-09-18T03:43:04.656Z,17.12
2018-09-18T03:43:46.715Z,17.15
2018-09-18T03:44:30.063Z,17.14
2018-09-18T03:47:13.446Z,17.18
2018-09-18T03:52:19.896Z,17.27
2018-09-18T03:53:02.170Z,17.15
2018-09-18T03:53:42.773Z,17.22
2018-09-18T03:54:24.015Z,17.21
2018-09-18T03:55:04.391Z,17.22
2018-09-18T03:55:45.794Z,17.28
2018-09-18T03:56:26.387Z,17.32
2018-09-18T03:57:06.817Z,17.33
2018-09-18T03:57:47.914Z,17.3
2018-09-18T03:58:28.883Z,17.18
2018-09-18T03:59:09.400Z,17.15
2018-09-18T03:59:52.609Z,17.21
2018-09-18T04:00:32.986Z,17.2
2018-09-18T04:01:13.430Z,17.2
2018-09-18T04:01:54.460Z,17.28
2018-09-18T04:02:35.235Z,17.18
2018-09-18T04:03:15.420Z,17.3
2018-09-18T04:03:56.175Z,17.25
2018-09-18T04:04:37.017Z,17.33
2018-09-18T04:05:17.362Z,17.24
2018-09-18T04:05:57.874Z,17.25
2018-09-18T04:06:38.644Z,17.32
2018-09-18T04:07:19.199Z,17.3
2018-09-18T04:08:00.213Z,17.25
2018-09-18T04:08:41.211Z,17.3
2018-09-18T04:09:21.553Z,17.33
2018-09-18T04:10:03.083Z,17.3
2018-09-18T04:10:43.935Z,17.38
2018-09-18T04:11:24.477Z,17.28
2018-09-18T04:12:05.622Z,17.35
2018-09-18T04:12:46.685Z,17.25
2018-09-18T04:13:27.124Z,17.36
2018-09-18T04:14:08.195Z,17.27
2018-09-18T04:14:49.558Z,17.24
2018-09-18T04:15:30.702Z,17.27
2018-09-18T04:16:12.963Z,17.27
2018-09-18T04:16:53.757Z,17.28
2018-09-18T04:17:34.059Z,17.28
2018-09-18T04:18:15.190Z,17.2
2018-09-18T04:18:55.228Z,17.27
2018-09-18T04:19:36.373Z,17.3
2018-09-18T04:20:16.201Z,17.28
2018-09-18T04:20:57.336Z,17.22
2018-09-18T04:21:37.528Z,17.28
2018-09-18T04:22:17.871Z,17.22
2018-09-18T04:22:58.374Z,17.27
2018-09-18T04:23:38.977Z,17.32
2018-09-18T04:24:20.673Z,17.28
2018-09-18T04:25:01.775Z,17.33
2018-09-18T04:25:41.375Z,17.33
2018-09-18T04:26:22.012Z,17.22
2018-09-18T04:27:03.105Z,17.3
2018-09-18T05:06:48.848Z,17.14
2018-09-18T05:07:41.555Z,17.09
2018-09-18T05:08:33.440Z,17.15
2018-09-18T05:09:27.186Z,17.14
2018-09-18T05:10:20.076Z,17.28
2018-09-18T05:11:12.686Z,17.32
2018-09-18T05:13:46.555Z,17.4
2018-09-18T05:18:12.283Z,17.77
2018-09-18T05:19:07.567Z,17.86
2018-09-18T05:20:01.111Z,17.84
2018-09-18T05:20:53.597Z,17.95
2018-09-18T05:21:51.571Z,18.19
2018-09-18T05:22:44.330Z,18.26
2018-09-18T05:23:39.599Z,18.41
2018-09-18T05:24:32.574Z,18.6
2018-09-18T05:25:25.208Z,18.72
2018-09-18T05:26:17.475Z,18.83
2018-09-18T05:27:10.838Z,19.05
2018-09-18T05:28:03.537Z,19.21
2018-09-18T05:28:56.025Z,19.32
2018-09-18T05:29:48.096Z,19.5
2018-09-18T05:30:45.781Z,19.61
2018-09-18T05:31:44.172Z,19.67
2018-09-18T05:32:37.522Z,19.86
2018-09-18T05:33:37.449Z,20.05
2018-09-18T05:34:31.186Z,20.19
2018-09-18T05:35:21.280Z,20.3
2018-09-18T05:36:01.385Z,20.4
2018-09-18T05:36:41.911Z,20.46
2018-09-18T05:37:22.373Z,20.61
2018-09-18T05:38:02.849Z,20.71
2018-09-18T05:38:43.410Z,20.76
2018-09-18T05:39:24.457Z,20.91
2018-09-18T05:40:06.145Z,21.01
2018-09-18T05:40:46.025Z,21.13
2018-09-18T05:41:26.374Z,21.12
2018-09-18T05:42:07.028Z,21.24
2018-09-18T05:42:47.349Z,21.33
2018-09-18T05:43:29.545Z,21.43
2018-09-18T05:44:10.245Z,21.51
2018-09-18T05:44:55.748Z,21.63
2018-09-18T05:45:36.201Z,21.61
2018-09-18T05:46:16.603Z,21.7
2018-09-18T05:46:57.153Z,21.85
2018-09-18T05:47:37.393Z,21.9
2018-09-18T05:48:17.996Z,21.98
2018-09-18T05:49:08.079Z,22.04
2018-09-18T05:49:50.185Z,22.17
2018-09-18T05:50:42.216Z,22.21
2018-09-18T05:51:22.790Z,22.36
2018-09-18T05:52:03.212Z,22.3
2018-09-18T05:52:43.639Z,22.42
2018-09-18T05:53:24.048Z,22.49
2018-09-18T05:54:04.736Z,22.51
2018-09-18T05:54:45.144Z,22.51
2018-09-18T05:55:25.599Z,22.6
2018-09-18T05:56:06.025Z,22.76
2018-09-18T05:56:46.389Z,22.82
2018-09-18T05:57:26.927Z,22.91
2018-09-18T05:58:07.344Z,22.89
2018-09-18T05:58:47.777Z,22.97
2018-09-18T05:59:28.225Z,22.93
2018-09-18T06:00:08.603Z,22.96
2018-09-18T06:00:50.270Z,23.03
2018-09-18T06:01:30.628Z,23.11
2018-09-18T06:02:11.097Z,23.14
2018-09-18T06:02:51.848Z,23.25
2018-09-18T06:04:34.608Z,23.39
2018-09-18T06:05:27.425Z,23.44
2018-09-18T06:06:24.922Z,23.54
2018-09-18T06:07:19.836Z,23.67
2018-09-18T06:08:16.857Z,23.56
2018-09-18T06:09:12.745Z,23.72
2018-09-18T06:10:04.582Z,23.82
2018-09-18T06:10:57.583Z,23.86
2018-09-18T06:11:54.401Z,23.96
2018-09-18T06:12:50.663Z,24.02
2018-09-18T06:13:44.023Z,24.04
2018-09-18T06:14:38.565Z,24.06
2018-09-18T06:15:35.778Z,24.09
2018-09-18T06:16:36.882Z,24.11
2018-09-18T06:17:37.112Z,24.19
2018-09-18T06:20:33.558Z,24.16
2018-09-18T06:21:32.107Z,24.18
2018-09-18T06:22:30.895Z,24.21
2018-09-18T06:23:28.462Z,24.15
2018-09-18T06:24:22.236Z,24.18
2018-09-18T06:25:26.104Z,24.24
2018-09-18T06:29:12.055Z,24.18
2018-09-18T06:30:09.941Z,24.06
2018-09-18T06:31:03.837Z,24.14
2018-09-18T06:32:43.398Z,24.02
2018-09-18T06:33:44.976Z,24.14
2018-09-18T06:34:46.181Z,24.09
2018-09-18T06:44:04.329Z,24.46
2018-09-18T06:44:59.704Z,24.45
2018-09-18T06:46:00.597Z,24.61
2018-09-18T06:49:19.094Z,24.82
2018-09-18T06:52:54.231Z,25.02
2018-09-18T06:54:01.049Z,25.02
2018-09-18T06:55:01.122Z,25.17
2018-09-18T06:56:06.628Z,25.23
2018-09-18T06:57:04.568Z,25.26
2018-09-18T06:58:01.425Z,25.24
2018-09-18T06:59:09.369Z,25.3
2018-09-18T07:00:06.193Z,25.36
2018-09-18T07:01:10.461Z,25.44
2018-09-18T07:02:14.014Z,25.61
2018-09-18T07:03:18.685Z,25.61
2018-09-18T07:04:18.355Z,25.75
2018-09-18T07:05:17.892Z,25.91
2018-09-18T07:06:37.045Z,26.01
2018-09-18T07:07:48.836Z,26.12
2018-09-18T07:08:49.421Z,26.13
2018-09-18T07:09:41.947Z,26.16
2018-09-18T07:10:35.989Z,26.24
2018-09-18T07:12:45.483Z,26.03
2018-09-18T07:13:39.259Z,25.97
2018-09-18T07:14:31.934Z,26
2018-09-18T07:15:24.884Z,26.19
2018-09-18T07:16:17.974Z,26.28
2018-09-18T07:17:11.351Z,26.39
2018-09-18T07:18:14.980Z,26.32
2018-09-18T07:19:09.111Z,26.32
2018-09-18T07:20:04.236Z,26.41
2018-09-18T07:21:12.883Z,26.39
2018-09-18T07:22:05.738Z,26.51
2018-09-18T07:23:05.240Z,26.42
2018-09-18T07:24:00.599Z,26.5
2018-09-18T07:24:53.996Z,26.65
2018-09-18T07:25:47.852Z,26.64
2018-09-18T07:28:15.420Z,26.66
2018-09-18T07:29:58.837Z,26.72
2018-09-18T07:30:54.613Z,26.86
2018-09-18T07:31:48.550Z,26.98
2018-09-18T07:32:41.866Z,27.15
2018-09-18T07:33:36.892Z,27.16
2018-09-18T07:34:31.127Z,27.05
2018-09-18T07:35:23.855Z,27.09
2018-09-18T07:36:17.813Z,27.23
2018-09-18T07:38:43.324Z,27.49
2018-09-18T07:39:37.644Z,27.58
2018-09-18T07:40:37.808Z,27.61
2018-09-18T07:41:31.485Z,27.58
2018-09-18T07:42:26.958Z,27.55
2018-09-18T07:43:22.370Z,27.74
2018-09-18T07:44:14.715Z,27.77
2018-09-18T07:45:07.039Z,27.8
2018-09-18T07:46:00.987Z,27.87
2018-09-18T07:46:52.642Z,27.78
2018-09-18T07:47:47.338Z,27.88
2018-09-18T07:48:43.585Z,27.88
2018-09-18T07:49:45.662Z,27.91
2018-09-18T07:54:41.147Z,28.02
2018-09-18T07:57:04.649Z,28.09
2018-09-18T07:58:05.523Z,28.09
2018-09-18T07:58:46.096Z,28.11
2018-09-18T07:59:26.771Z,28.05
2018-09-18T08:00:07.495Z,28.08
2018-09-18T08:01:59.511Z,28.13
2018-09-18T08:03:06.351Z,28.15
2018-09-18T08:04:00.870Z,28.33
2018-09-18T08:04:56.172Z,28.39
2018-09-18T08:05:55.533Z,28.45
2018-09-18T08:08:10.314Z,28.88
2018-09-18T08:09:18.272Z,28.87
2018-09-18T08:10:17.625Z,28.95
2018-09-18T08:11:18.777Z,29.08
2018-09-18T08:12:24.865Z,29.05
2018-09-18T08:13:23.286Z,29.03
2018-09-18T08:14:19.053Z,29.08
2018-09-18T08:15:12.768Z,29.11
2018-09-18T08:16:10.783Z,29.07
2018-09-18T08:17:06.113Z,29.08
2018-09-18T08:18:23.055Z,29.1
2018-09-18T08:20:17.015Z,29.12
2018-09-18T08:21:13.830Z,29.3
2018-09-18T08:22:10.424Z,29.32
2018-09-18T08:23:04.170Z,29.37
2018-09-18T08:24:44.576Z,29.51
2018-09-18T08:25:25.502Z,29.47
2018-09-18T08:26:05.501Z,29.37
2018-09-18T08:26:46.223Z,29.44
2018-09-18T08:27:27.146Z,29.37
2018-09-18T08:28:07.655Z,29.42
2018-09-18T08:28:50.731Z,29.45
2018-09-18T08:29:31.009Z,29.57
2018-09-18T08:30:12.970Z,29.58
2018-09-18T08:30:53.649Z,29.57
2018-09-18T08:31:34.084Z,29.49
2018-09-18T08:32:14.961Z,29.6
2018-09-18T08:32:56.531Z,29.66
2018-09-18T08:33:39.321Z,29.69
2018-09-18T08:34:21.900Z,29.69
2018-09-18T08:35:01.752Z,29.79
2018-09-18T08:35:42.480Z,29.89
2018-09-18T08:36:27.745Z,30
2018-09-18T08:37:07.524Z,29.92
2018-09-18T08:37:48.204Z,29.92
2018-09-18T08:38:30.403Z,29.85
2018-09-18T08:39:10.177Z,29.88
2018-09-18T08:39:52.914Z,29.89
2018-09-18T08:40:35.678Z,29.97
2018-09-18T08:41:17.129Z,29.97
2018-09-18T08:42:14.129Z,30.15
2018-09-18T08:42:55.386Z,30.28
2018-09-18T08:43:36.957Z,30.37
2018-09-18T08:44:17.373Z,30.23
2018-09-18T08:44:58.212Z,30.25
2018-09-18T08:45:38.632Z,30.29
2018-09-18T08:46:20.936Z,30.19
2018-09-18T08:47:01.045Z,30.28
2018-09-18T08:47:42.709Z,30.25
2018-09-18T08:48:25.820Z,30.28
2018-09-18T08:49:07.671Z,30.25
2018-09-18T08:49:49.515Z,30.32
2018-09-18T08:50:30.322Z,30.34
2018-09-18T08:51:12.430Z,30.32
2018-09-18T08:51:54.208Z,30.3
2018-09-18T08:52:34.954Z,30.28
2018-09-18T08:53:16.313Z,30.34
2018-09-18T08:53:57.812Z,30.36
2018-09-18T08:54:39.973Z,30.28
2018-09-18T08:55:21.596Z,30.26
2018-09-18T08:56:02.865Z,30.28
2018-09-18T08:56:43.951Z,30.48
2018-09-18T08:57:26.663Z,30.56
2018-09-18T08:58:07.338Z,30.57
2018-09-18T08:58:48.448Z,30.82
2018-09-18T08:59:29.947Z,31.01
2018-09-18T09:00:10.833Z,31.18
2018-09-18T09:00:51.945Z,31.27
2018-09-18T09:01:32.857Z,31.47
2018-09-18T09:02:13.809Z,31.49
2018-09-18T09:02:54.453Z,31.42
2018-09-18T09:03:34.976Z,31.56
2018-09-18T09:04:17.951Z,31.56
2018-09-18T09:04:58.767Z,31.68
2018-09-18T09:05:39.267Z,31.76
2018-09-18T09:06:20.100Z,31.87
2018-09-18T09:07:00.637Z,32.03
2018-09-18T09:07:41.173Z,32.13
2018-09-18T09:08:22.409Z,32.34
2018-09-18T09:09:05.976Z,32.5
2018-09-18T09:09:47.034Z,32.5
2018-09-18T09:10:27.845Z,32.65
2018-09-18T09:11:08.844Z,32.65
2018-09-18T09:11:49.762Z,32.62
2018-09-18T09:12:31.189Z,32.62
2018-09-18T09:13:12.152Z,32.69
2018-09-18T09:13:54.402Z,32.69
2018-09-18T09:14:34.777Z,32.69
2018-09-18T09:15:15.377Z,32.72
2018-09-18T09:15:56.335Z,32.81
2018-09-18T09:16:38.474Z,32.81
2018-09-18T09:17:19.328Z,32.84
2018-09-18T09:18:02.069Z,32.99
2018-09-18T09:18:42.448Z,32.95
2018-09-18T09:19:22.332Z,33.03
2018-09-18T09:20:03.070Z,33.03
2018-09-18T09:20:45.288Z,33.14
2018-09-18T09:21:27.781Z,33.26
2018-09-18T09:22:08.845Z,33.15
2018-09-18T09:22:49.173Z,33.29
2018-09-18T09:23:29.755Z,33.29
2018-09-18T09:24:10.227Z,33.35
2018-09-18T09:24:50.718Z,33.53
2018-09-18T09:25:32.968Z,33.6
2018-09-18T09:26:15.112Z,33.77
2018-09-18T09:26:55.382Z,33.93
2018-09-18T09:27:35.811Z,34.09
2018-09-18T09:28:16.412Z,34.16
2018-09-18T09:28:56.775Z,34.19
2018-09-18T09:29:37.219Z,34.42
2018-09-18T09:30:18.673Z,34.46
2018-09-18T09:30:59.301Z,34.4
2018-09-18T09:31:39.729Z,34.45
2018-09-18T09:32:20.825Z,34.64
2018-09-18T09:33:00.902Z,34.78
2018-09-18T09:33:41.351Z,34.94
2018-09-18T09:34:21.853Z,35.21
2018-09-18T09:35:03.425Z,35.17
2018-09-18T09:35:43.295Z,35.21
2018-09-18T09:36:23.824Z,35.28
2018-09-18T09:37:05.464Z,35.32
2018-09-18T09:37:45.363Z,35.52
2018-09-18T09:38:26.371Z,35.68
2018-09-18T09:39:06.480Z,35.89
2018-09-18T09:39:47.049Z,35.91
2018-09-18T09:40:28.454Z,36.05
2018-09-18T09:41:08.838Z,36.15
2018-09-18T09:41:49.449Z,36.19
2018-09-18T09:42:30.107Z,36.21
2018-09-18T09:43:10.504Z,36.25
2018-09-18T09:43:52.574Z,36.37
2018-09-18T09:44:33.115Z,36.44
2018-09-18T09:45:13.945Z,36.44
2018-09-18T09:45:54.349Z,36.44
2018-09-18T09:46:35.660Z,36.6
2018-09-18T09:47:16.119Z,36.57
2018-09-18T09:47:56.634Z,36.74
2018-09-18T09:48:37.079Z,36.97
2018-09-18T09:49:17.520Z,36.96
2018-09-18T09:49:57.980Z,37.11
2018-09-18T09:50:38.641Z,37.2
2018-09-18T09:51:19.346Z,37.13
2018-09-18T09:51:59.588Z,37.18
2018-09-18T09:52:44.721Z,37.04
2018-09-18T09:53:25.414Z,36.89
2018-09-18T09:54:05.931Z,36.9
2018-09-18T09:54:46.390Z,36.9
2018-09-18T09:55:26.874Z,36.77
2018-09-18T09:56:08.257Z,36.62
2018-09-18T09:56:50.126Z,36.52
2018-09-18T09:57:30.619Z,36.44
2018-09-18T09:58:11.175Z,36.5
2018-09-18T09:58:53.737Z,36.38
2018-09-18T09:59:34.816Z,36.48
2018-09-18T10:00:15.790Z,36.44
2018-09-18T10:00:56.322Z,36.65
2018-09-18T10:04:20.192Z,36.97
2018-09-18T10:05:11.098Z,36.9
2018-09-18T10:05:56.291Z,36.89
2018-09-18T10:06:41.409Z,36.96
2018-09-18T10:07:28.916Z,37.02
2018-09-18T10:08:18.921Z,36.97
2018-09-18T10:09:17.399Z,36.78
2018-09-18T10:10:02.236Z,36.78
2018-09-18T10:10:43.492Z,36.78
2018-09-18T10:11:29.890Z,36.74
2018-09-18T10:12:17.197Z,36.68
2018-09-18T10:13:04.857Z,36.6
2018-09-18T10:13:50.391Z,36.43
2018-09-18T10:14:37.387Z,36.28
2018-09-18T10:15:19.338Z,36.16
2018-09-18T10:15:59.892Z,36.03
2018-09-18T10:16:40.310Z,35.85
2018-09-18T10:17:20.763Z,36.03
2018-09-18T10:18:01.503Z,36.27
2018-09-18T10:18:43.329Z,36.16
2018-09-18T10:19:23.073Z,36.22
2018-09-18T10:20:03.562Z,36.21
2018-09-18T10:20:44.013Z,36.38
2018-09-18T10:21:24.556Z,36.6
2018-09-18T10:22:04.959Z,36.59
2018-09-18T10:22:46.895Z,36.65
2018-09-18T10:23:26.213Z,36.86
2018-09-18T10:24:07.337Z,36.97
2018-09-18T10:24:47.555Z,37.09
2018-09-18T10:25:29.426Z,37.09
2018-09-18T10:26:11.017Z,37.21
2018-09-18T10:26:51.000Z,37.24
2018-09-18T11:06:57.093Z,36.3
2018-09-18T11:07:56.987Z,36.41
2018-09-18T11:09:05.315Z,36.38
2018-09-18T11:10:05.577Z,36.3
2018-09-18T11:11:03.910Z,36.23
2018-09-18T11:16:11.635Z,37.01
2018-09-18T11:17:34.017Z,37.06
2018-09-18T11:18:37.082Z,37.02
2018-09-18T11:23:40.487Z,37.06
2018-09-18T11:24:25.110Z,37.05
2018-09-18T11:25:06.549Z,37.21
2018-09-18T11:25:46.365Z,37.25
2018-09-18T11:26:27.921Z,37.34
2018-09-18T11:27:08.057Z,37.18
2018-09-18T11:27:49.152Z,37.24
2018-09-18T11:28:30.792Z,37.34
2018-09-18T11:29:11.321Z,37.53
2018-09-18T11:29:51.230Z,37.53
2018-09-18T11:30:32.137Z,37.62
2018-09-18T11:31:13.443Z,37.69
2018-09-18T11:31:53.323Z,37.68
2018-09-18T11:32:33.917Z,37.73
2018-09-18T11:33:15.338Z,37.85
2018-09-18T11:33:55.374Z,37.87
2018-09-18T11:34:35.922Z,37.97
2018-09-18T11:35:17.694Z,38.09
2018-09-18T11:35:59.307Z,37.99
2018-09-18T11:36:38.990Z,38.02
2018-09-18T11:37:19.929Z,37.97
2018-09-18T11:38:00.473Z,37.95
2018-09-18T11:38:41.844Z,38.06
2018-09-18T11:39:21.729Z,38.07
2018-09-18T11:40:03.427Z,38.03
2018-09-18T11:40:45.292Z,38.07
2018-09-18T11:41:26.272Z,38.06
2018-09-18T11:42:07.805Z,38.06
2018-09-18T11:42:47.643Z,38.21
2018-09-18T11:43:28.693Z,38.12
2018-09-18T11:44:09.541Z,38.15
2018-09-18T11:44:50.167Z,38.33
2018-09-18T11:45:30.736Z,38.4
2018-09-18T11:46:11.465Z,38.28
2018-09-18T11:46:52.026Z,38.28
2018-09-18T11:47:32.701Z,38.03
2018-09-18T11:48:13.542Z,37.72
2018-09-18T11:48:56.941Z,37.63
2018-09-18T11:49:38.510Z,37.58
2018-09-18T11:50:19.451Z,37.62
2018-09-18T11:51:00.338Z,37.45
2018-09-18T11:51:41.316Z,37.38
2018-09-18T11:52:21.861Z,37.34
2018-09-18T11:53:02.893Z,37.53
2018-09-18T11:53:43.800Z,37.63
2018-09-18T11:54:24.000Z,37.7
2018-09-18T11:55:06.283Z,37.85
2018-09-18T11:55:45.994Z,37.91
2018-09-18T11:56:26.682Z,38.1
2018-09-18T11:58:39.653Z,38.6
2018-09-18T11:59:20.019Z,38.63
2018-09-18T12:00:00.743Z,38.79
2018-09-18T12:00:42.157Z,38.89
2018-09-18T12:01:21.515Z,38.86
2018-09-18T12:02:02.006Z,38.97
2018-09-18T12:02:42.709Z,38.98
2018-09-18T12:03:23.040Z,38.86
2018-09-18T12:04:04.675Z,38.86
2018-09-18T12:04:44.477Z,38.75